createdAt,value
2023-04-05T00:00:02.482Z,2.57
2023-04-05T00:02:33.009Z,1.93
2023-04-05T00:05:03.754Z,2.20
2023-04-05T00:07:34.306Z,1.90
2023-04-05T00:10:03.356Z,2.20
2023-04-05T00:12:35.749Z,2.23
2023-04-05T00:15:05.294Z,2.30
2023-04-05T00:17:36.090Z,2.23
2023-04-05T00:20:08.319Z,1.90
2023-04-05T00:22:40.134Z,1.63
2023-04-05T00:25:11.932Z,1.70
2023-04-05T00:27:45.359Z,2.17
2023-04-05T00:30:21.225Z,2.57
2023-04-05T00:32:52.048Z,1.70
2023-04-05T00:35:22.225Z,2.00
2023-04-05T00:37:51.715Z,1.70
2023-04-05T00:40:22.275Z,2.07
2023-04-05T00:42:53.126Z,2.07
2023-04-05T00:45:23.663Z,2.00
2023-04-05T00:47:53.881Z,2.10
2023-04-05T00:50:25.957Z,2.20
2023-04-05T00:52:56.513Z,2.10
2023-04-05T00:55:28.963Z,2.20
2023-04-05T00:58:00.900Z,2.40
2023-04-05T01:00:32.511Z,2.03
2023-04-05T01:03:05.893Z,1.97
2023-04-05T01:05:41.419Z,1.63
2023-04-05T01:08:22.756Z,2.13
2023-04-05T01:10:58.472Z,2.03
2023-04-05T01:13:31.245Z,1.60
2023-04-05T01:16:01.019Z,1.87
2023-04-05T01:18:33.082Z,1.90
2023-04-05T01:21:38.593Z,2.10
2023-04-05T01:24:32.380Z,2.17
2023-04-05T01:27:12.678Z,2.10
2023-04-05T01:30:01.054Z,1.90
2023-04-05T01:32:58.014Z,2.30
2023-04-05T01:35:42.074Z,2.10
2023-04-05T01:38:20.788Z,1.80
2023-04-05T01:40:50.946Z,2.43
2023-04-05T01:43:21.257Z,2.30
2023-04-05T01:45:52.662Z,1.80
2023-04-05T01:48:23.340Z,1.73
2023-04-05T01:50:53.426Z,2.20
2023-04-05T01:53:22.900Z,2.30
2023-04-05T01:55:52.891Z,2.43
2023-04-05T01:58:22.281Z,1.90
2023-04-05T02:00:56.098Z,2.60
2023-04-05T02:03:25.229Z,1.93
2023-04-05T02:05:53.737Z,2.13
2023-04-05T02:08:24.434Z,2.20
2023-04-05T02:10:56.580Z,1.87
2023-04-05T02:13:27.573Z,2.17
2023-04-05T02:15:58.346Z,2.13
2023-04-05T02:18:32.618Z,2.53
2023-04-05T02:21:08.040Z,2.50
2023-04-05T02:23:38.738Z,2.23
2023-04-05T02:26:08.479Z,2.17
2023-04-05T02:28:37.217Z,1.90
2023-04-05T02:31:12.706Z,2.00
2023-04-05T02:33:42.884Z,2.37
2023-04-05T02:36:14.528Z,2.73
2023-04-05T02:38:42.980Z,2.27
2023-04-05T02:41:13.279Z,2.10
2023-04-05T02:43:43.853Z,1.77
2023-04-05T02:46:15.058Z,2.40
2023-04-05T02:48:45.914Z,2.03
2023-04-05T02:51:14.811Z,2.30
2023-04-05T02:53:45.016Z,2.10
2023-04-05T02:56:15.424Z,2.20
2023-04-05T02:58:44.331Z,1.90
2023-04-05T03:01:18.512Z,2.10
2023-04-05T03:03:49.019Z,1.90
2023-04-05T03:06:21.276Z,2.00
2023-04-05T03:08:51.229Z,2.57
2023-04-05T03:11:20.633Z,2.30
2023-04-05T03:13:51.582Z,2.23
2023-04-05T03:16:23.691Z,1.90
2023-04-05T03:18:53.322Z,2.27
2023-04-05T03:21:23.286Z,2.10
2023-04-05T03:23:53.894Z,5.97
2023-04-05T03:26:25.053Z,2.43
2023-04-05T03:28:55.557Z,1.90
2023-04-05T03:31:26.644Z,2.60
2023-04-05T03:33:56.129Z,2.37
2023-04-05T03:36:29.394Z,2.67
2023-04-05T03:38:58.518Z,1.83
2023-04-05T03:41:28.945Z,2.60
2023-04-05T03:44:00.050Z,2.27
2023-04-05T03:46:31.008Z,2.20
2023-04-05T03:49:02.913Z,2.33
2023-04-05T03:51:33.228Z,2.20
2023-04-05T03:54:03.166Z,2.10
2023-04-05T03:56:33.470Z,1.90
2023-04-05T03:59:04.295Z,2.50
2023-04-05T04:01:34.541Z,2.30
2023-04-05T04:04:05.107Z,2.40
2023-04-05T04:06:35.849Z,2.50
2023-04-05T04:09:06.939Z,3.13
2023-04-05T04:11:37.363Z,2.60
2023-04-05T04:14:06.815Z,2.20
2023-04-05T04:16:37.875Z,2.67
2023-04-05T04:19:07.284Z,2.33
2023-04-05T04:21:39.670Z,2.10
2023-04-05T04:24:08.544Z,2.87
2023-04-05T04:26:41.588Z,2.57
2023-04-05T04:29:12.972Z,2.77
2023-04-05T04:31:46.026Z,2.80
2023-04-05T04:34:19.247Z,4.50
2023-04-05T04:37:00.633Z,3.90
2023-04-05T04:39:32.151Z,4.27
2023-04-05T04:42:02.002Z,3.47
2023-04-05T04:44:32.036Z,3.07
2023-04-05T04:47:03.397Z,3.43
2023-04-05T04:49:33.886Z,2.77
2023-04-05T04:52:05.095Z,3.30
2023-04-05T04:54:34.965Z,3.77
2023-04-05T04:57:03.921Z,3.87
2023-04-05T04:59:34.101Z,3.17
2023-04-05T05:02:06.171Z,3.93
2023-04-05T05:04:36.711Z,3.00
2023-04-05T05:07:07.673Z,3.20
2023-04-05T05:09:37.676Z,3.10
2023-04-05T05:12:08.898Z,3.07
2023-04-05T05:14:38.420Z,3.07
2023-04-05T05:17:10.283Z,3.73
2023-04-05T05:19:39.814Z,3.53
2023-04-05T05:22:09.771Z,3.60
2023-04-05T05:24:39.696Z,4.07
2023-04-05T05:27:08.777Z,3.37
2023-04-05T05:29:38.721Z,3.40
2023-04-05T05:32:15.082Z,3.23
2023-04-05T05:34:45.669Z,3.80
2023-04-05T05:37:17.335Z,3.53
2023-04-05T05:39:47.235Z,3.10
2023-04-05T05:42:17.197Z,3.40
2023-04-05T05:44:47.023Z,3.00
2023-04-05T05:47:17.711Z,3.50
2023-04-05T05:49:49.742Z,3.47
2023-04-05T05:52:19.563Z,2.50
2023-04-05T05:54:49.774Z,2.40
2023-04-05T05:57:19.831Z,2.87
2023-04-05T05:59:49.381Z,3.33
2023-04-05T06:02:20.928Z,3.37
2023-04-05T06:04:51.556Z,2.90
2023-04-05T06:07:22.813Z,2.97
2023-04-05T06:09:52.876Z,3.67
2023-04-05T06:12:23.451Z,2.80
2023-04-05T06:14:55.855Z,3.80
2023-04-05T06:17:26.818Z,3.33
2023-04-05T06:19:56.165Z,3.47
2023-04-05T06:22:25.498Z,4.30
2023-04-05T06:24:55.526Z,3.50
2023-04-05T06:27:25.481Z,4.00
2023-04-05T06:29:56.075Z,3.73
2023-04-05T06:32:26.913Z,4.07
2023-04-05T06:34:56.434Z,3.50
2023-04-05T06:37:27.026Z,3.13
2023-04-05T06:39:56.430Z,3.80
2023-04-05T06:42:27.362Z,3.30
2023-04-05T06:44:59.142Z,3.80
2023-04-05T06:47:30.544Z,3.30
2023-04-05T06:50:00.096Z,4.40
2023-04-05T06:52:30.366Z,3.00
2023-04-05T06:54:59.994Z,3.53
2023-04-05T06:57:29.411Z,3.57
2023-04-05T06:59:59.374Z,4.07
2023-04-05T07:02:30.712Z,3.80
2023-04-05T07:05:05.812Z,4.00
2023-04-05T07:07:36.139Z,4.20
2023-04-05T07:10:05.696Z,4.47
2023-04-05T07:12:34.196Z,4.70
2023-04-05T07:15:02.698Z,4.60
2023-04-05T07:17:32.717Z,4.40
2023-04-05T07:20:01.282Z,4.23
2023-04-05T07:22:29.797Z,4.03
2023-04-05T07:24:58.525Z,4.27
2023-04-05T07:27:27.137Z,4.20
2023-04-05T07:29:56.657Z,4.10
2023-04-05T07:32:26.786Z,3.70
2023-04-05T07:34:58.423Z,3.80
2023-04-05T07:37:27.429Z,4.27
2023-04-05T07:39:58.431Z,4.47
2023-04-05T07:42:29.141Z,4.00
2023-04-05T07:44:59.315Z,4.63
2023-04-05T07:47:29.787Z,4.10
2023-04-05T07:50:01.235Z,3.57
2023-04-05T07:52:29.751Z,4.10
2023-04-05T07:55:00.952Z,3.50
2023-04-05T07:57:29.942Z,3.90
2023-04-05T07:59:59.910Z,3.43
2023-04-05T08:02:29.493Z,3.70
2023-04-05T08:05:01.112Z,3.27
2023-04-05T08:07:31.885Z,3.37
2023-04-05T08:10:02.767Z,3.10
2023-04-05T08:12:32.972Z,3.13
2023-04-05T08:15:02.410Z,3.50
2023-04-05T08:17:31.341Z,2.80
2023-04-05T08:20:03.381Z,3.23
2023-04-05T08:22:33.524Z,3.43
2023-04-05T08:25:03.667Z,3.03
2023-04-05T08:27:32.307Z,4.00
2023-04-05T08:30:00.813Z,3.00
2023-04-05T08:32:29.250Z,3.57
2023-04-05T08:34:57.701Z,3.07
2023-04-05T08:37:27.980Z,3.40
2023-04-05T08:39:56.490Z,3.23
2023-04-05T08:42:31.568Z,3.00
2023-04-05T08:45:04.515Z,2.87
2023-04-05T08:47:36.740Z,3.20
2023-04-05T08:50:06.465Z,3.23
2023-04-05T08:52:42.980Z,3.03
2023-04-05T08:55:12.790Z,3.00
2023-04-05T08:57:46.252Z,3.30
2023-04-05T09:00:17.013Z,2.70
2023-04-05T09:02:50.012Z,3.03
2023-04-05T09:05:21.132Z,3.00
2023-04-05T09:07:54.367Z,3.13
2023-04-05T09:10:27.258Z,3.50
2023-04-05T09:12:57.291Z,2.80
2023-04-05T09:15:28.822Z,2.73
2023-04-05T09:18:00.271Z,3.33
2023-04-05T09:20:29.451Z,2.63
2023-04-05T09:23:00.742Z,2.60
2023-04-05T09:25:39.638Z,2.90
2023-04-05T09:28:11.067Z,2.63
2023-04-05T09:30:47.793Z,3.20
2023-04-05T09:33:22.281Z,2.90
2023-04-05T09:35:52.461Z,2.77
2023-04-05T09:38:47.752Z,2.60
2023-04-05T09:41:18.103Z,3.07
2023-04-05T09:43:47.611Z,3.00
2023-04-05T09:46:34.103Z,3.57
2023-04-05T09:49:04.608Z,2.70
2023-04-05T09:51:38.329Z,2.80
2023-04-05T09:54:11.384Z,3.17
2023-04-05T09:56:54.624Z,2.80
2023-04-05T09:59:25.447Z,3.13
2023-04-05T10:01:55.582Z,3.00
2023-04-05T10:04:27.207Z,2.73
2023-04-05T10:06:57.481Z,2.50
2023-04-05T10:09:29.684Z,2.67
2023-04-05T10:11:59.932Z,2.40
2023-04-05T10:14:29.905Z,3.10
2023-04-05T10:17:11.966Z,2.40
2023-04-05T10:20:04.971Z,2.50
2023-04-05T10:22:59.441Z,2.63
2023-04-05T10:25:48.610Z,2.30
2023-04-05T10:28:32.589Z,2.50
2023-04-05T10:31:14.191Z,2.80
2023-04-05T10:33:48.222Z,2.67
2023-04-05T10:36:28.540Z,2.83
2023-04-05T10:39:06.151Z,2.43
2023-04-05T10:41:42.033Z,2.43
2023-04-05T10:44:23.110Z,2.73
2023-04-05T10:46:58.779Z,2.97
2023-04-05T10:49:36.363Z,3.50
2023-04-05T10:52:07.801Z,3.00
2023-04-05T10:54:38.678Z,3.00
2023-04-05T10:57:12.806Z,2.67
2023-04-05T10:59:46.348Z,2.70
2023-04-05T11:02:18.770Z,2.73
2023-04-05T11:04:47.846Z,2.93
2023-04-05T11:07:19.831Z,2.87
2023-04-05T11:09:56.589Z,3.47
2023-04-05T11:13:08.855Z,3.30
2023-04-05T11:15:38.847Z,2.63
2023-04-05T11:18:12.405Z,2.40
2023-04-05T11:20:51.907Z,3.10
2023-04-05T11:23:23.978Z,2.37
2023-04-05T11:25:58.313Z,3.10
2023-04-05T11:28:33.372Z,2.50
2023-04-05T11:31:16.432Z,3.27
2023-04-05T11:34:10.524Z,3.30
2023-04-05T11:36:46.617Z,3.10
2023-04-05T11:39:30.637Z,2.60
2023-04-05T11:42:06.169Z,2.73
2023-04-05T11:44:54.945Z,3.00
2023-04-05T11:47:23.657Z,2.77
2023-04-05T11:49:54.993Z,3.10
2023-04-05T11:52:23.638Z,2.80
2023-04-05T11:54:53.577Z,3.10
2023-04-05T11:57:25.128Z,2.40
2023-04-05T11:59:56.485Z,2.53
2023-04-05T12:02:26.829Z,2.70
2023-04-05T12:04:58.159Z,2.73
2023-04-05T12:07:32.619Z,3.50
2023-04-05T12:10:08.183Z,3.03
2023-04-05T12:12:59.007Z,3.60
2023-04-05T12:15:29.708Z,2.90
2023-04-05T12:17:59.375Z,2.70
2023-04-05T12:20:30.321Z,2.30
2023-04-05T12:23:00.427Z,3.50
2023-04-05T12:25:29.916Z,2.83
2023-04-05T12:28:06.439Z,3.10
2023-04-05T12:30:40.690Z,2.50
2023-04-05T12:33:11.115Z,2.83
2023-04-05T12:35:42.223Z,2.63
2023-04-05T12:38:11.412Z,2.57
2023-04-05T12:40:43.147Z,3.23
2023-04-05T12:43:19.717Z,2.50
2023-04-05T12:45:54.668Z,2.30
2023-04-05T12:48:26.147Z,2.73
2023-04-05T12:50:56.915Z,2.80
2023-04-05T12:53:30.073Z,2.53
2023-04-05T12:56:00.616Z,2.70
2023-04-05T12:58:36.894Z,3.17
2023-04-05T13:01:09.495Z,2.80
2023-04-05T13:03:40.219Z,2.70
2023-04-05T13:06:10.148Z,2.80
2023-04-05T13:08:40.175Z,3.40
2023-04-05T13:11:09.759Z,3.03
2023-04-05T13:13:39.641Z,2.90
2023-04-05T13:16:10.809Z,3.20
2023-04-05T13:18:40.838Z,2.57
2023-04-05T13:21:10.865Z,3.03
2023-04-05T13:23:41.352Z,2.70
2023-04-05T13:26:11.044Z,3.00
2023-04-05T13:28:40.530Z,2.77
2023-04-05T13:31:12.523Z,3.67
2023-04-05T13:33:43.159Z,2.80
2023-04-05T13:36:14.821Z,2.80
2023-04-05T13:38:44.684Z,2.67
2023-04-05T13:41:16.574Z,3.20
2023-04-05T13:43:46.333Z,3.53
2023-04-05T13:46:17.806Z,2.77
2023-04-05T13:48:47.759Z,3.17
2023-04-05T13:51:18.193Z,3.30
2023-04-05T13:53:49.428Z,3.77
2023-04-05T13:56:18.445Z,2.93
2023-04-05T13:58:48.551Z,3.10
2023-04-05T14:01:20.151Z,2.90
2023-04-05T14:03:49.505Z,3.87
2023-04-05T14:06:19.585Z,2.47
2023-04-05T14:08:48.624Z,3.47
2023-04-05T14:11:19.948Z,3.00
2023-04-05T14:13:49.696Z,2.73
2023-04-05T14:16:22.202Z,2.40
2023-04-05T14:18:53.148Z,2.57
2023-04-05T14:21:23.190Z,3.27
2023-04-05T14:23:57.538Z,2.77
2023-04-05T14:26:28.960Z,2.50
2023-04-05T14:28:59.183Z,2.67
2023-04-05T14:31:29.952Z,2.47
2023-04-05T14:34:00.931Z,2.80
2023-04-05T14:36:31.206Z,2.93
2023-04-05T14:39:00.972Z,2.87
2023-04-05T14:41:29.880Z,3.10
2023-04-05T14:44:00.839Z,3.20
2023-04-05T14:46:31.582Z,3.37
2023-04-05T14:49:00.766Z,3.10
2023-04-05T14:51:31.416Z,2.83
2023-04-05T14:54:01.601Z,2.97
2023-04-05T14:56:31.922Z,2.93
2023-04-05T14:59:02.545Z,3.20
2023-04-05T15:01:35.165Z,2.80
2023-04-05T15:04:07.048Z,3.07
2023-04-05T15:06:39.703Z,2.70
2023-04-05T15:09:09.358Z,3.10
2023-04-05T15:11:40.339Z,2.50
2023-04-05T15:14:13.394Z,2.53
2023-04-05T15:16:53.181Z,2.80
2023-04-05T15:19:23.385Z,2.30
2023-04-05T15:21:53.929Z,2.53
2023-04-05T15:24:24.391Z,2.70
2023-04-05T15:26:59.134Z,2.60
2023-04-05T15:29:30.468Z,2.73
2023-04-05T15:32:01.762Z,2.87
2023-04-05T15:34:33.804Z,2.87
2023-04-05T15:37:03.541Z,2.30
2023-04-05T15:39:32.041Z,3.07
2023-04-05T15:42:04.090Z,2.70
2023-04-05T15:44:34.058Z,3.53
2023-04-05T15:47:05.093Z,3.90
2023-04-05T15:49:35.459Z,3.43
2023-04-05T15:52:06.237Z,3.53
2023-04-05T15:54:35.284Z,2.50
2023-04-05T15:57:05.054Z,2.90
2023-04-05T15:59:34.943Z,2.60
2023-04-05T16:02:08.057Z,2.60
2023-04-05T16:04:39.276Z,2.47
2023-04-05T16:07:12.933Z,4.50
2023-04-05T16:09:42.935Z,3.20
2023-04-05T16:12:17.993Z,2.90
2023-04-05T16:14:48.714Z,2.73
2023-04-05T16:17:20.601Z,3.13
2023-04-05T16:19:50.927Z,2.80
2023-04-05T16:22:20.912Z,3.00
2023-04-05T16:24:49.937Z,2.80
2023-04-05T16:27:19.685Z,2.60
2023-04-05T16:29:50.019Z,2.67
2023-04-05T16:32:20.457Z,2.77
2023-04-05T16:34:49.055Z,2.97
2023-04-05T16:37:18.876Z,2.83
2023-04-05T16:39:48.507Z,2.70
2023-04-05T16:42:18.851Z,2.30
2023-04-05T16:44:48.036Z,2.40
2023-04-05T16:47:17.692Z,2.60
2023-04-05T16:49:48.788Z,2.87
2023-04-05T16:52:18.580Z,1.90
2023-04-05T16:54:47.693Z,2.87
2023-04-05T16:57:16.434Z,2.40
2023-04-05T16:59:46.696Z,2.90
2023-04-05T17:02:16.703Z,5.03
2023-04-05T17:04:47.766Z,2.50
2023-04-05T17:07:16.732Z,3.10
2023-04-05T17:09:45.880Z,2.37
2023-04-05T17:12:14.872Z,2.50
2023-04-05T17:14:44.556Z,2.57
2023-04-05T17:17:15.434Z,3.33
2023-04-05T17:19:48.515Z,3.20
2023-04-05T17:22:17.138Z,2.80
2023-04-05T17:24:47.600Z,2.60
2023-04-05T17:27:17.410Z,2.90
2023-04-05T17:29:47.594Z,2.50
2023-04-05T17:32:16.619Z,2.30
2023-04-05T17:34:47.600Z,2.23
2023-04-05T17:37:17.427Z,2.23
2023-04-05T17:39:46.577Z,2.10
2023-04-05T17:42:16.958Z,2.30
2023-04-05T17:44:45.540Z,7.43
2023-04-05T17:47:16.391Z,1.90
2023-04-05T17:49:48.193Z,2.47
2023-04-05T17:52:18.008Z,2.40
2023-04-05T17:54:48.547Z,2.83
2023-04-05T17:57:18.828Z,2.53
2023-04-05T17:59:48.932Z,2.40
2023-04-05T18:02:19.122Z,2.63
2023-04-05T18:04:50.476Z,1.83
2023-04-05T18:07:19.406Z,1.90
2023-04-05T18:09:49.804Z,2.40
2023-04-05T18:12:19.993Z,2.10
2023-04-05T18:14:49.646Z,2.40
2023-04-05T18:17:20.145Z,2.00
2023-04-05T18:19:53.181Z,1.70
2023-04-05T18:22:22.190Z,1.80
2023-04-05T18:24:51.871Z,1.70
2023-04-05T18:27:22.861Z,2.30
2023-04-05T18:29:52.817Z,2.20
2023-04-05T18:32:23.548Z,3.23
2023-04-05T18:34:54.362Z,2.10
2023-04-05T18:37:24.001Z,2.30
2023-04-05T18:39:55.018Z,2.03
2023-04-05T18:42:25.166Z,2.27
2023-04-05T18:44:57.422Z,3.10
2023-04-05T18:47:28.246Z,2.40
2023-04-05T18:49:58.989Z,2.60
2023-04-05T18:52:34.717Z,2.00
2023-04-05T18:55:04.728Z,2.03
2023-04-05T18:57:35.837Z,2.73
2023-04-05T19:00:06.606Z,2.90
2023-04-05T19:02:35.798Z,2.50
2023-04-05T19:05:09.908Z,2.00
2023-04-05T19:07:39.341Z,2.00
2023-04-05T19:10:12.866Z,1.90
2023-04-05T19:12:43.724Z,3.07
2023-04-05T19:15:14.468Z,4.30
2023-04-05T19:17:45.023Z,2.83
2023-04-05T19:20:16.334Z,3.30
2023-04-05T19:22:46.193Z,2.60
2023-04-05T19:25:17.416Z,2.50
2023-04-05T19:27:45.958Z,3.47
2023-04-05T19:30:16.969Z,4.00
2023-04-05T19:32:46.180Z,2.70
2023-04-05T19:35:18.735Z,2.23
2023-04-05T19:37:49.130Z,3.00
2023-04-05T19:40:20.074Z,2.57
2023-04-05T19:42:48.930Z,2.23
2023-04-05T19:45:28.009Z,1.93
2023-04-05T19:48:00.239Z,3.63
2023-04-05T19:50:57.930Z,2.47
2023-04-05T19:53:49.815Z,3.77
2023-04-05T19:56:21.947Z,4.27
2023-04-05T19:58:56.589Z,2.63
2023-04-05T20:01:35.534Z,3.07
2023-04-05T20:04:13.867Z,2.73
2023-04-05T20:06:52.808Z,3.27
2023-04-05T20:09:23.717Z,2.70
2023-04-05T20:11:59.212Z,2.93
2023-04-05T20:14:42.624Z,2.63
2023-04-05T20:17:17.412Z,3.37
2023-04-05T20:19:58.833Z,2.57
2023-04-05T20:22:30.198Z,3.97
2023-04-05T20:24:59.882Z,5.10
2023-04-05T20:27:29.842Z,4.03
2023-04-05T20:29:59.189Z,4.00
2023-04-05T20:32:29.653Z,4.40
2023-04-05T20:34:59.314Z,3.20
2023-04-05T20:37:30.552Z,3.60
2023-04-05T20:39:59.076Z,4.27
2023-04-05T20:42:29.306Z,4.23
2023-04-05T20:44:59.519Z,6.33
2023-04-05T20:47:29.310Z,4.30
2023-04-05T20:49:59.010Z,4.50
2023-04-05T20:52:30.878Z,4.57
2023-04-05T20:55:00.590Z,4.10
2023-04-05T20:57:30.770Z,3.93
2023-04-05T21:00:02.865Z,5.27
2023-04-05T21:02:33.497Z,4.50
2023-04-05T21:05:05.022Z,4.57
2023-04-05T21:07:36.549Z,5.70
2023-04-05T21:10:07.474Z,4.37
2023-04-05T21:12:36.646Z,4.60
2023-04-05T21:15:07.182Z,4.07
2023-04-05T21:17:35.886Z,4.87
2023-04-05T21:20:07.747Z,4.57
2023-04-05T21:22:38.729Z,4.27
2023-04-05T21:25:10.401Z,4.03
2023-04-05T21:27:40.516Z,4.17
2023-04-05T21:30:13.690Z,3.73
2023-04-05T21:32:43.617Z,3.97
2023-04-05T21:35:12.660Z,3.07
2023-04-05T21:37:44.378Z,3.47
2023-04-05T21:40:14.599Z,3.23
2023-04-05T21:42:43.881Z,3.23
2023-04-05T21:45:14.143Z,3.40
2023-04-05T21:47:43.482Z,3.70
2023-04-05T21:50:14.648Z,3.43
2023-04-05T21:52:46.382Z,2.93
2023-04-05T21:55:15.917Z,3.33
2023-04-05T21:57:45.590Z,3.13
2023-04-05T22:00:17.056Z,3.17
2023-04-05T22:02:47.730Z,3.30
2023-04-05T22:05:33.944Z,3.73
2023-04-05T22:08:08.972Z,3.63
2023-04-05T22:10:40.962Z,4.20
2023-04-05T22:13:12.029Z,3.90
2023-04-05T22:15:44.098Z,3.83
2023-04-05T22:18:14.910Z,3.80
2023-04-05T22:20:45.898Z,2.90
2023-04-05T22:23:16.996Z,2.60
2023-04-05T22:25:47.160Z,2.87
2023-04-05T22:28:17.378Z,2.73
2023-04-05T22:30:48.157Z,2.87
2023-04-05T22:33:18.518Z,2.80
2023-04-05T22:35:48.744Z,2.70
2023-04-05T22:38:21.064Z,2.60
2023-04-05T22:40:51.973Z,3.00
2023-04-05T22:43:21.559Z,2.70
2023-04-05T22:45:53.019Z,2.90
2023-04-05T22:48:22.871Z,2.97
2023-04-05T22:50:52.600Z,3.00
2023-04-05T22:53:23.005Z,2.93
2023-04-05T22:55:53.065Z,2.33
2023-04-05T22:58:22.536Z,2.67
2023-04-05T23:00:52.097Z,2.30
2023-04-05T23:03:22.646Z,2.53
2023-04-05T23:05:52.933Z,2.77
2023-04-05T23:08:24.616Z,2.87
2023-04-05T23:10:54.374Z,2.40
2023-04-05T23:13:24.207Z,2.63
2023-04-05T23:15:53.907Z,2.73
2023-04-05T23:18:24.184Z,2.40
2023-04-05T23:20:53.320Z,2.90
2023-04-05T23:23:24.370Z,2.47
2023-04-05T23:25:55.369Z,2.50
2023-04-05T23:28:25.278Z,2.47
2023-04-05T23:30:54.931Z,2.60
2023-04-05T23:33:25.448Z,2.60
2023-04-05T23:35:55.036Z,2.57
2023-04-05T23:38:26.766Z,2.63
2023-04-05T23:40:57.621Z,2.50
2023-04-05T23:43:28.610Z,3.10
2023-04-05T23:45:59.495Z,2.50
2023-04-05T23:48:30.520Z,3.20
2023-04-05T23:51:00.842Z,2.63
2023-04-05T23:53:32.617Z,2.33
2023-04-05T23:56:02.359Z,3.03
2023-04-05T23:58:33.376Z,2.93
